Time;durP1;ratioP1;P1;durP2;ratioP2;P2;SDS_P1;SDS_P2;PMS_P1;PMS_P2;Temp;Humidity;BMP_temperature;BMP_pressure;BME280_temperature;BME280_humidity;BME280_pressure;Samples;Min_cycle;Max_cycle;Signal;HPM_P1;HPM_P2
2023/07/25 00:00:14;;;;;;;10.30;8.30;;;;;;;18.24;100.00;97544.05;136024;1275;22555;-83
2023/07/25 00:03:37;;;;;;;11.30;8.40;;;;;;;18.09;100.00;97539.84;135294;1275;22922;-83
2023/07/25 00:06:39;;;;;;;164.00;18.80;;;;;;;17.99;100.00;97544.66;135443;1275;22515;-84
2023/07/25 00:09:41;;;;;;;12.90;8.60;;;;;;;17.93;100.00;97548.95;135840;1275;22561;-82
2023/07/25 00:12:44;;;;;;;11.90;8.10;;;;;;;17.87;100.00;97550.23;135780;1275;22589;-83
2023/07/25 00:15:46;;;;;;;85.50;12.80;;;;;;;17.79;100.00;97549.64;135722;1275;22644;-83
2023/07/25 00:18:50;;;;;;;25.60;9.60;;;;;;;17.75;100.00;97552.59;135801;1262;22580;-84
2023/07/25 00:21:53;;;;;;;17.50;8.40;;;;;;;17.78;100.00;97550.71;135775;1275;22537;-83
2023/07/25 00:24:55;;;;;;;9.30;8.20;;;;;;;17.81;100.00;97541.98;135754;1275;22547;-81
2023/07/25 00:27:57;;;;;;;21.10;9.20;;;;;;;17.82;100.00;97543.17;135809;1274;22518;-83
2023/07/25 00:31:00;;;;;;;13.90;8.80;;;;;;;17.82;100.00;97547.21;135728;1274;22533;-81
2023/07/25 00:34:03;;;;;;;10.90;8.80;;;;;;;17.81;100.00;97556.05;135559;1275;22544;-85
2023/07/25 00:37:06;;;;;;;11.00;8.60;;;;;;;17.84;100.00;97565.80;135757;1275;22579;-83
2023/07/25 00:40:08;;;;;;;15.10;9.40;;;;;;;17.85;100.00;97577.05;135643;1275;22526;-84
2023/07/25 00:43:11;;;;;;;14.40;9.20;;;;;;;17.85;100.00;97565.94;135536;1275;22549;-85
2023/07/25 00:46:13;;;;;;;11.10;8.90;;;;;;;17.85;100.00;97556.98;135580;1275;22526;-84
2023/07/25 00:49:16;;;;;;;11.80;8.20;;;;;;;17.78;100.00;97554.05;135599;1275;22552;-86
2023/07/25 00:52:18;;;;;;;37.60;10.00;;;;;;;17.96;100.00;97541.59;135689;1275;22704;-83
2023/07/25 00:55:21;;;;;;;17.90;10.50;;;;;;;18.97;100.00;97533.66;135749;1272;24173;-84
2023/07/25 00:58:23;;;;;;;12.60;9.40;;;;;;;19.78;100.00;97527.14;135786;1274;22557;-86
2023/07/25 01:01:29;;;;;;;14.00;9.30;;;;;;;20.28;100.00;97522.88;135758;1275;22586;-85
2023/07/25 01:04:31;;;;;;;12.10;9.20;;;;;;;20.40;100.00;97517.02;135703;1275;24297;-83
2023/07/25 01:07:33;;;;;;;16.80;9.40;;;;;;;20.43;100.00;97522.01;135713;1274;22525;-83
2023/07/25 01:10:38;;;;;;;22.80;10.30;;;;;;;20.35;100.00;97525.92;135619;1275;22493;-81
2023/07/25 01:13:41;;;;;;;25.90;9.60;;;;;;;20.01;100.00;97531.92;135592;1275;22540;-84
2023/07/25 01:16:43;;;;;;;11.60;8.40;;;;;;;20.07;100.00;97536.59;135606;1275;22945;-85
2023/07/25 01:19:46;;;;;;;15.00;8.70;;;;;;;20.19;100.00;97538.30;135653;1275;22544;-83
2023/07/25 01:22:49;;;;;;;13.10;7.80;;;;;;;20.60;100.00;97542.20;135651;1274;22553;-84
2023/07/25 01:25:51;;;;;;;15.20;7.60;;;;;;;20.73;100.00;97538.03;135620;1274;22553;-85
2023/07/25 01:28:53;;;;;;;12.40;8.60;;;;;;;20.62;100.00;97536.80;135640;1274;22534;-84
2023/07/25 01:31:56;;;;;;;82.70;11.30;;;;;;;20.59;100.00;97540.85;135619;1275;23606;-84
2023/07/25 01:34:58;;;;;;;21.30;8.30;;;;;;;20.32;100.00;97543.16;135666;1275;22589;-83
2023/07/25 01:38:01;;;;;;;13.30;7.90;;;;;;;20.30;100.00;97544.13;135714;1274;22527;-82
2023/07/25 01:41:03;;;;;;;16.00;9.10;;;;;;;20.37;100.00;97541.54;135780;1274;22637;-84
2023/07/25 01:44:06;;;;;;;18.50;9.40;;;;;;;20.40;100.00;97540.38;135575;1275;22551;-83
2023/07/25 01:47:08;;;;;;;13.60;9.30;;;;;;;19.99;100.00;97539.75;135670;1274;25459;-83
2023/07/25 01:50:11;;;;;;;77.70;12.70;;;;;;;19.41;100.00;97542.75;135672;1272;22548;-83
2023/07/25 01:53:13;;;;;;;17.30;8.80;;;;;;;18.98;100.00;97541.58;135756;1275;22527;-85
2023/07/25 01:56:16;;;;;;;18.80;8.90;;;;;;;18.68;100.00;97544.94;135672;1274;22624;-84
2023/07/25 01:59:19;;;;;;;14.50;9.10;;;;;;;18.45;100.00;97544.42;135663;1275;22537;-83
2023/07/25 02:02:21;;;;;;;16.30;9.30;;;;;;;18.30;100.00;97543.10;135649;1275;25883;-84
2023/07/25 02:05:24;;;;;;;14.20;9.60;;;;;;;18.18;100.00;97547.11;135714;1275;22579;-85
2023/07/25 02:08:26;;;;;;;16.70;9.70;;;;;;;18.05;100.00;97544.58;135620;1274;22527;-83
2023/07/25 02:11:29;;;;;;;18.10;9.80;;;;;;;17.95;100.00;97545.51;135601;1274;22968;-83
2023/07/25 02:14:31;;;;;;;14.00;9.30;;;;;;;17.87;100.00;97548.45;135639;1274;24999;-84
2023/07/25 02:17:33;;;;;;;13.10;9.70;;;;;;;17.80;100.00;97556.96;135585;1274;22537;-83
2023/07/25 02:20:36;;;;;;;25.10;10.40;;;;;;;17.75;100.00;97561.05;135646;1275;22515;-83
2023/07/25 02:23:41;;;;;;;15.10;9.80;;;;;;;17.73;100.00;97563.59;135616;1275;22647;-83
2023/07/25 02:26:43;;;;;;;18.40;9.90;;;;;;;17.70;100.00;97563.16;135677;1274;22549;-84
2023/07/25 02:29:46;;;;;;;16.70;10.20;;;;;;;17.66;100.00;97562.06;135727;1274;22522;-83
2023/07/25 02:32:48;;;;;;;13.40;9.70;;;;;;;17.64;100.00;97569.00;136143;1275;22948;-83
2023/07/25 02:35:51;;;;;;;18.70;10.40;;;;;;;17.61;100.00;97562.07;136377;1274;22556;-84
2023/07/25 02:38:53;;;;;;;15.40;9.40;;;;;;;17.61;100.00;97564.71;136353;1274;22530;-83
2023/07/25 02:41:56;;;;;;;20.60;9.90;;;;;;;17.61;100.00;97572.44;136381;1274;22560;-81
2023/07/25 02:44:58;;;;;;;15.60;10.90;;;;;;;17.62;100.00;97571.73;136466;1275;22153;-82
2023/07/25 02:48:01;;;;;;;13.20;9.50;;;;;;;17.64;100.00;97570.39;136630;1274;22618;-82
2023/07/25 02:51:07;;;;;;;16.00;10.00;;;;;;;17.68;100.00;97571.52;136616;1274;22580;-84
2023/07/25 02:54:10;;;;;;;13.80;9.60;;;;;;;17.72;100.00;97574.69;136225;1274;23582;-82
2023/07/25 02:57:13;;;;;;;14.10;9.90;;;;;;;17.75;100.00;97571.58;136113;1274;22535;-82
2023/07/25 03:00:15;;;;;;;20.10;11.40;;;;;;;17.80;100.00;97567.73;136162;1274;22551;-82
2023/07/25 03:03:18;;;;;;;13.80;9.70;;;;;;;17.84;100.00;97562.65;135938;1274;22571;-83
2023/07/25 03:06:20;;;;;;;12.60;11.30;;;;;;;17.86;100.00;97565.20;135817;1275;22538;-82
2023/07/25 03:09:23;;;;;;;17.20;12.00;;;;;;;17.90;100.00;97565.08;135758;1272;22633;-82
2023/07/25 03:12:25;;;;;;;19.00;12.30;;;;;;;17.94;100.00;97565.98;135694;1275;22556;-82
2023/07/25 03:15:28;;;;;;;19.10;12.40;;;;;;;17.98;100.00;97568.11;135580;1275;22463;-84
2023/07/25 03:18:30;;;;;;;20.90;11.20;;;;;;;18.01;100.00;97571.67;135724;1275;22557;-82
2023/07/25 03:21:33;;;;;;;15.70;10.00;;;;;;;18.02;100.00;97570.91;135877;1272;24887;-83
2023/07/25 03:24:35;;;;;;;16.70;9.80;;;;;;;18.03;100.00;97576.88;135836;1274;23000;-83
2023/07/25 03:27:38;;;;;;;14.80;9.40;;;;;;;18.05;100.00;97575.92;135645;1275;22640;-83
2023/07/25 03:30:40;;;;;;;19.60;9.60;;;;;;;18.07;100.00;97577.10;135970;1265;22565;-83
2023/07/25 03:33:43;;;;;;;16.20;9.90;;;;;;;18.10;100.00;97577.83;135974;1275;26037;-84
2023/07/25 03:36:45;;;;;;;14.20;10.10;;;;;;;18.12;100.00;97586.04;135785;1274;25387;-83
2023/07/25 03:39:48;;;;;;;14.10;9.20;;;;;;;18.12;100.00;97586.19;135932;1275;22521;-83
2023/07/25 03:42:50;;;;;;;22.10;9.90;;;;;;;18.14;100.00;97581.23;135906;1272;22536;-83
2023/07/25 03:45:53;;;;;;;16.60;9.90;;;;;;;18.19;100.00;97577.69;136108;1274;22584;-83
2023/07/25 03:48:56;;;;;;;17.00;11.00;;;;;;;18.24;100.00;97581.40;136004;1274;22561;-83
2023/07/25 03:51:59;;;;;;;18.70;10.40;;;;;;;18.26;100.00;97577.42;136132;1274;22540;-85
2023/07/25 03:55:01;;;;;;;16.50;10.40;;;;;;;18.29;100.00;97572.38;136251;1275;22572;-83
2023/07/25 03:58:04;;;;;;;12.40;9.60;;;;;;;18.32;100.00;97580.20;136272;1274;22562;-83
2023/07/25 04:01:07;;;;;;;14.30;9.90;;;;;;;18.37;100.00;97585.29;135955;1275;23397;-82
2023/07/25 04:04:09;;;;;;;15.60;9.70;;;;;;;18.41;100.00;97588.80;136198;1275;26821;-83
2023/07/25 04:07:12;;;;;;;15.40;10.30;;;;;;;18.45;100.00;97594.61;136214;1275;22549;-79
2023/07/25 04:10:14;;;;;;;19.90;10.10;;;;;;;18.53;100.00;97588.35;134986;1275;22537;-82
2023/07/25 04:13:17;;;;;;;13.70;9.40;;;;;;;18.64;100.00;97585.29;136226;1275;22570;-84
2023/07/25 04:16:19;;;;;;;15.90;9.90;;;;;;;18.69;100.00;97585.25;136346;1275;22547;-84
2023/07/25 04:19:22;;;;;;;16.60;9.60;;;;;;;18.74;100.00;97591.05;136370;1275;22573;-84
2023/07/25 04:22:24;;;;;;;15.40;9.60;;;;;;;18.77;100.00;97590.39;136349;1259;22565;-83
2023/07/25 04:25:27;;;;;;;12.30;9.90;;;;;;;18.80;100.00;97589.38;136592;1274;22628;-82
2023/07/25 04:28:29;;;;;;;15.00;9.60;;;;;;;18.85;100.00;97590.41;136494;1275;22531;-82
2023/07/25 04:31:32;;;;;;;17.30;10.00;;;;;;;18.86;100.00;97586.48;136325;1275;22564;-83
2023/07/25 04:34:35;;;;;;;13.40;9.30;;;;;;;18.92;100.00;97590.64;136382;1274;22684;-82
2023/07/25 04:37:37;;;;;;;16.10;8.70;;;;;;;18.94;100.00;97587.59;136340;1274;22562;-83
2023/07/25 04:40:39;;;;;;;18.20;8.60;;;;;;;18.96;100.00;97589.09;136492;1275;25274;-82
2023/07/25 04:43:42;;;;;;;14.40;9.60;;;;;;;19.08;100.00;97596.18;136239;1275;22518;-83
2023/07/25 04:46:44;;;;;;;20.70;9.60;;;;;;;19.30;100.00;97595.61;136160;1275;22652;-81
2023/07/25 04:49:47;;;;;;;16.70;9.40;;;;;;;19.74;100.00;97594.23;136115;1274;22598;-82
2023/07/25 04:52:49;;;;;;;13.50;8.70;;;;;;;20.17;100.00;97589.11;136472;1275;22547;-83
2023/07/25 04:55:52;;;;;;;16.90;9.60;;;;;;;20.55;100.00;97595.29;136397;1275;22597;-82
2023/07/25 04:58:54;;;;;;;18.00;9.10;;;;;;;20.84;100.00;97597.25;136373;1275;22576;-82
2023/07/25 05:01:57;;;;;;;20.30;9.70;;;;;;;21.14;100.00;97600.36;136536;1275;25426;-83
2023/07/25 05:04:59;;;;;;;12.20;8.30;;;;;;;21.28;100.00;97599.86;136637;1273;22557;-82
2023/07/25 05:08:02;;;;;;;17.40;9.60;;;;;;;21.22;100.00;97598.75;136528;1275;22577;-82
2023/07/25 05:11:04;;;;;;;12.00;8.90;;;;;;;21.37;100.00;97604.38;136402;1274;22654;-81
2023/07/25 05:14:07;;;;;;;13.50;8.90;;;;;;;21.20;100.00;97605.58;136404;1275;22600;-79
2023/07/25 05:17:12;;;;;;;14.80;8.60;;;;;;;21.35;100.00;97609.06;135064;1274;22583;-80
2023/07/25 05:20:14;;;;;;;18.90;9.60;;;;;;;21.60;100.00;97613.77;135133;1275;23047;-79
2023/07/25 05:23:17;;;;;;;19.90;9.30;;;;;;;21.78;100.00;97612.52;135127;1274;22539;-81
2023/07/25 05:26:19;;;;;;;14.80;8.10;;;;;;;22.16;100.00;97615.44;135184;1274;22580;-80
2023/07/25 05:29:22;;;;;;;13.10;8.30;;;;;;;22.43;100.00;97616.44;135196;1270;22533;-80
2023/07/25 05:32:24;;;;;;;16.10;8.90;;;;;;;22.56;100.00;97611.48;135188;1274;23240;-79
2023/07/25 05:35:27;;;;;;;11.70;7.90;;;;;;;22.52;100.00;97611.35;135068;1274;22909;-79
2023/07/25 05:38:29;;;;;;;14.50;8.80;;;;;;;22.70;100.00;97615.67;135062;1274;22512;-78
2023/07/25 05:41:32;;;;;;;14.20;8.80;;;;;;;22.58;100.00;97618.34;135109;1275;23114;-81
2023/07/25 05:44:35;;;;;;;12.90;8.40;;;;;;;22.52;100.00;97624.11;136344;1270;22566;-81
2023/07/25 05:47:37;;;;;;;12.30;7.90;;;;;;;22.38;100.00;97625.61;136662;1275;22549;-81
2023/07/25 05:50:39;;;;;;;12.50;7.70;;;;;;;22.08;100.00;97627.23;136545;1274;22579;-81
2023/07/25 05:53:42;;;;;;;12.10;7.50;;;;;;;21.95;100.00;97619.94;136507;1275;22583;-83
2023/07/25 05:56:44;;;;;;;10.60;7.40;;;;;;;22.12;100.00;97613.21;136460;1260;22778;-81
2023/07/25 05:59:47;;;;;;;13.70;8.00;;;;;;;22.29;100.00;97616.85;136519;1274;22596;-81
2023/07/25 06:02:50;;;;;;;10.90;7.30;;;;;;;22.49;100.00;97613.65;136546;1274;22548;-80
2023/07/25 06:05:52;;;;;;;16.40;7.40;;;;;;;22.48;100.00;97611.40;136441;1274;22615;-81
2023/07/25 06:08:55;;;;;;;10.60;7.10;;;;;;;22.59;100.00;97605.84;136452;1275;22164;-80
2023/07/25 06:11:57;;;;;;;14.10;6.90;;;;;;;22.73;100.00;97609.11;136518;1274;22567;-81
2023/07/25 06:15:00;;;;;;;11.00;6.70;;;;;;;22.85;100.00;97611.63;136419;1274;23192;-82
2023/07/25 06:18:02;;;;;;;11.20;6.40;;;;;;;23.01;100.00;97613.97;136191;1274;26060;-78
2023/07/25 06:21:05;;;;;;;11.30;6.60;;;;;;;23.14;100.00;97618.69;135408;1275;22526;-80
2023/07/25 06:24:07;;;;;;;13.10;7.30;;;;;;;23.27;100.00;97626.28;135421;1274;25236;-81
2023/07/25 06:27:10;;;;;;;8.80;6.50;;;;;;;23.33;100.00;97631.42;135225;1274;22612;-82
2023/07/25 06:30:12;;;;;;;12.90;6.10;;;;;;;23.30;100.00;97636.04;136418;1274;22609;-81
2023/07/25 06:33:15;;;;;;;12.00;6.90;;;;;;;23.31;100.00;97635.23;136335;1274;22571;-80
2023/07/25 06:36:17;;;;;;;9.50;6.20;;;;;;;23.50;100.00;97631.70;136486;1274;23153;-79
2023/07/25 06:39:20;;;;;;;12.40;6.80;;;;;;;23.62;100.00;97633.70;136606;1274;22573;-81
2023/07/25 06:42:23;;;;;;;8.00;5.80;;;;;;;23.67;100.00;97631.05;136723;1275;21965;-80
2023/07/25 06:45:25;;;;;;;8.00;5.80;;;;;;;23.74;100.00;97632.73;136416;1275;22564;-81
2023/07/25 06:48:27;;;;;;;8.20;5.20;;;;;;;23.85;100.00;97632.80;135189;1274;22534;-80
2023/07/25 06:51:30;;;;;;;7.80;4.90;;;;;;;23.95;92.58;97634.32;135244;1274;22542;-79
2023/07/25 06:54:32;;;;;;;9.00;4.80;;;;;;;23.93;61.73;97635.48;135151;1274;23037;-81
2023/07/25 06:57:35;;;;;;;7.20;4.90;;;;;;;23.96;61.03;97630.68;135307;1274;22631;-79
2023/07/25 07:00:39;;;;;;;7.50;4.80;;;;;;;24.02;61.07;97640.27;136597;1275;22577;-80
2023/07/25 07:03:41;;;;;;;4.10;3.70;;;;;;;24.24;61.48;97652.09;135196;1275;22695;-80
2023/07/25 07:06:44;;;;;;;6.60;3.90;;;;;;;24.59;59.45;97659.49;135256;1274;23106;-80
2023/07/25 07:09:46;;;;;;;7.50;4.10;;;;;;;24.59;58.63;97652.20;136153;1274;22588;-78
2023/07/25 07:12:50;;;;;;;5.50;4.50;;;;;;;24.60;59.03;97651.13;135474;1274;23342;-86
2023/07/25 07:15:52;;;;;;;;;;;;;;;24.64;58.06;97650.13;136121;1274;22662;-84
2023/07/25 07:18:55;;;;;;;4.10;3.70;;;;;;;24.61;56.52;97653.34;136085;1274;22913;-84
2023/07/25 07:21:59;;;;;;;8.70;4.10;;;;;;;24.50;57.92;97652.81;136510;1274;22536;-83
2023/07/25 07:25:08;;;;;;;6.70;3.90;;;;;;;24.48;57.88;97649.52;136898;1270;22254;-87
2023/07/25 07:28:10;;;;;;;8.00;4.50;;;;;;;24.67;58.56;97643.89;136908;1278;22349;-82
2023/07/25 07:31:13;;;;;;;4.60;3.90;;;;;;;24.85;58.24;97642.40;137042;1278;22220;-82
2023/07/25 07:34:16;;;;;;;6.70;4.20;;;;;;;24.96;58.00;97642.71;137170;1278;22625;-86
2023/07/25 07:37:19;;;;;;;8.40;4.20;;;;;;;25.01;58.01;97636.15;136619;1278;22652;-79
2023/07/25 07:40:21;;;;;;;5.00;4.30;;;;;;;25.12;56.62;97632.59;137013;1278;22816;-82
2023/07/25 07:43:24;;;;;;;4.80;3.20;;;;;;;25.07;55.37;97631.00;137085;1278;22269;-81
2023/07/25 07:46:26;;;;;;;9.00;4.30;;;;;;;25.12;56.24;97626.91;137074;1278;22218;-81
2023/07/25 07:49:29;;;;;;;4.40;3.60;;;;;;;25.29;55.84;97631.15;137005;1278;22108;-81
2023/07/25 07:52:31;;;;;;;5.70;3.80;;;;;;;25.37;55.20;97633.27;137034;1278;22197;-82
2023/07/25 07:55:34;;;;;;;5.50;3.80;;;;;;;25.43;55.22;97630.94;137021;1267;22173;-81
2023/07/25 07:58:36;;;;;;;5.10;3.50;;;;;;;25.52;54.78;97621.25;136984;1278;22172;-80
2023/07/25 08:01:39;;;;;;;10.50;3.80;;;;;;;25.51;53.50;97611.02;136942;1277;22169;-82
2023/07/25 08:04:41;;;;;;;4.10;3.70;;;;;;;25.29;52.53;97594.48;136635;1277;22236;-81
2023/07/25 08:07:44;;;;;;;6.00;3.50;;;;;;;25.21;52.99;97584.71;136769;1278;22678;-81
2023/07/25 08:10:46;;;;;;;5.70;3.50;;;;;;;25.20;53.11;97581.39;136962;1278;22202;-81
2023/07/25 08:13:49;;;;;;;6.00;3.30;;;;;;;25.29;53.61;97581.31;136704;1278;22236;-81
2023/07/25 08:16:51;;;;;;;3.60;3.30;;;;;;;25.45;53.38;97590.38;137017;1278;22585;-82
2023/07/25 08:19:54;;;;;;;4.90;3.70;;;;;;;25.51;53.02;97595.86;137027;1278;22247;-81
2023/07/25 08:22:57;;;;;;;4.50;3.70;;;;;;;25.59;53.06;97597.59;137002;1277;22270;-81
2023/07/25 08:25:59;;;;;;;4.20;3.20;;;;;;;25.70;52.01;97606.30;137035;1270;22668;-82
2023/07/25 08:29:01;;;;;;;3.40;3.10;;;;;;;25.77;51.66;97614.77;136989;1278;22693;-80
2023/07/25 08:32:04;;;;;;;5.10;3.10;;;;;;;25.82;52.23;97627.40;136953;1278;22161;-83
2023/07/25 08:35:07;;;;;;;5.00;3.00;;;;;;;26.10;50.38;97635.27;136984;1278;22172;-83
2023/07/25 08:38:09;;;;;;;3.70;2.80;;;;;;;26.10;48.94;97635.99;136968;1278;22211;-81
2023/07/25 08:41:13;;;;;;;4.10;2.70;;;;;;;25.96;49.32;97624.95;136983;1278;22262;-80
2023/07/25 08:44:15;;;;;;;4.20;3.20;;;;;;;26.08;50.37;97623.63;136974;1278;22670;-81
2023/07/25 08:47:18;;;;;;;4.50;3.40;;;;;;;26.29;49.93;97620.54;136999;1278;22279;-81
2023/07/25 08:50:20;;;;;;;3.90;3.20;;;;;;;26.54;49.45;97620.90;136969;1278;22280;-80
2023/07/25 08:53:23;;;;;;;9.30;3.50;;;;;;;26.65;49.22;97610.30;136974;1278;22261;-81
2023/07/25 08:56:25;;;;;;;8.50;3.50;;;;;;;26.74;48.88;97603.77;136920;1270;22207;-80
2023/07/25 08:59:27;;;;;;;4.90;3.10;;;;;;;26.79;47.37;97594.66;136966;1278;22174;-80
2023/07/25 09:02:30;;;;;;;3.20;2.70;;;;;;;26.81;47.79;97589.33;136938;1278;22257;-83
2023/07/25 09:05:33;;;;;;;8.70;3.10;;;;;;;26.75;46.94;97586.73;136958;1278;22170;-81
2023/07/25 09:08:35;;;;;;;5.20;3.00;;;;;;;26.64;46.72;97600.76;136974;1278;22186;-81
2023/07/25 09:11:38;;;;;;;3.90;3.50;;;;;;;26.66;47.25;97601.48;136950;1278;22330;-81
2023/07/25 09:14:43;;;;;;;3.90;3.40;;;;;;;26.68;47.46;97597.23;136971;1278;22083;-82
2023/07/25 09:17:45;;;;;;;3.00;2.80;;;;;;;26.76;47.08;97594.52;137019;1278;22228;-79
2023/07/25 09:20:48;;;;;;;6.00;3.70;;;;;;;26.82;46.70;97596.73;137034;1278;22517;-82
2023/07/25 09:23:50;;;;;;;4.30;3.90;;;;;;;26.93;47.20;97595.96;136911;1278;22514;-84
2023/07/25 09:26:53;;;;;;;6.30;3.50;;;;;;;26.82;46.71;97599.46;136898;1278;22164;-84
2023/07/25 09:29:55;;;;;;;4.00;3.60;;;;;;;27.09;46.48;97596.37;137013;1278;22337;-83
2023/07/25 09:32:58;;;;;;;4.70;3.90;;;;;;;27.41;46.82;97594.17;137064;1278;22208;-83
2023/07/25 09:36:01;;;;;;;5.00;3.60;;;;;;;27.88;45.91;97600.37;137023;1277;22212;-84
2023/07/25 09:39:03;;;;;;;4.10;3.60;;;;;;;28.01;44.79;97603.87;136972;1278;22168;-83
2023/07/25 09:42:06;;;;;;;5.60;4.00;;;;;;;27.68;44.84;97595.52;136967;1278;22277;-83
2023/07/25 09:45:08;;;;;;;4.10;3.70;;;;;;;27.79;45.49;97594.97;136981;1278;22201;-82
2023/07/25 09:48:11;;;;;;;8.60;3.40;;;;;;;28.13;44.40;97586.11;136963;1277;22189;-83
2023/07/25 09:51:14;;;;;;;4.00;3.60;;;;;;;28.34;44.65;97585.13;136785;1278;22292;-84
2023/07/25 09:54:16;;;;;;;6.70;3.70;;;;;;;28.47;43.41;97581.39;136976;1278;22237;-83
2023/07/25 09:57:19;;;;;;;4.70;3.90;;;;;;;28.54;42.61;97574.79;136994;1278;22303;-83
2023/07/25 10:00:21;;;;;;;3.90;3.40;;;;;;;28.59;42.75;97572.23;136947;1278;22225;-82
2023/07/25 10:03:24;;;;;;;3.80;3.20;;;;;;;28.73;42.56;97577.77;136977;1277;22203;-83
2023/07/25 10:06:26;;;;;;;4.10;3.60;;;;;;;28.81;42.44;97568.46;137036;1278;22258;-82
2023/07/25 10:09:29;;;;;;;4.00;3.60;;;;;;;28.91;41.89;97571.81;136977;1278;22277;-84
2023/07/25 10:12:32;;;;;;;6.60;4.00;;;;;;;29.01;42.09;97569.66;136948;1277;22233;-84
2023/07/25 10:15:37;;;;;;;4.00;3.60;;;;;;;29.18;41.45;97560.41;136946;1278;22278;-83
2023/07/25 10:22:05;;;;;;;3.80;3.40;;;;;;;29.07;41.15;97558.77;136913;1277;22234;-83
2023/07/25 10:25:08;;;;;;;4.70;4.00;;;;;;;28.93;41.24;97555.36;137002;1278;22183;-84
2023/07/25 10:28:10;;;;;;;5.90;3.80;;;;;;;29.02;41.34;97552.08;137015;1278;22258;-84
2023/07/25 10:31:13;;;;;;;3.90;3.60;;;;;;;28.84;40.43;97552.48;136929;1277;22206;-83
2023/07/25 10:34:15;;;;;;;4.80;3.60;;;;;;;28.75;41.32;97549.64;136981;1277;22242;-84
2023/07/25 10:37:18;;;;;;;4.60;3.60;;;;;;;28.85;41.15;97566.38;137044;1278;22228;-84
2023/07/25 10:43:56;;;;;;;4.80;3.80;;;;;;;29.37;40.58;97563.63;136478;1282;22230;-84
2023/07/25 10:46:58;;;;;;;4.00;3.60;;;;;;;29.61;40.32;97570.05;136531;1283;22293;-84
2023/07/25 10:50:16;;;;;;;4.30;3.70;;;;;;;29.38;40.14;97567.65;136479;1283;22468;-82
2023/07/25 10:53:20;;;;;;;4.30;3.90;;;;;;;29.42;40.66;97561.95;136471;1283;22317;-84
2023/07/25 10:59:39;;;;;;;4.30;3.90;;;;;;;29.35;41.09;97542.99;136508;1282;22254;-84
2023/07/25 11:02:43;;;;;;;5.80;4.00;;;;;;;29.72;40.15;97535.20;136469;1282;22248;-84
2023/07/25 11:06:05;;;;;;;4.30;3.90;;;;;;;29.96;39.30;97521.27;136455;1282;22292;-85
2023/07/25 11:09:07;;;;;;;4.30;3.70;;;;;;;29.81;38.97;97511.13;136512;1282;22242;-85
2023/07/25 11:12:10;;;;;;;3.60;3.30;;;;;;;29.49;39.98;97500.07;136495;1282;22426;-82
2023/07/25 11:15:12;;;;;;;4.90;4.20;;;;;;;29.48;40.08;97487.63;136531;1282;22270;-84
2023/07/25 11:18:15;;;;;;;6.50;3.90;;;;;;;29.48;39.53;97486.05;136865;1278;22226;-83
2023/07/25 11:21:17;;;;;;;4.30;3.80;;;;;;;29.34;39.56;97485.72;137020;1278;22227;-82
2023/07/25 11:24:21;;;;;;;4.10;3.70;;;;;;;29.35;39.67;97487.48;136938;1278;22206;-84
2023/07/25 11:27:24;;;;;;;4.70;4.30;;;;;;;29.27;40.80;97493.16;137014;1277;22304;-82
2023/07/25 11:30:26;;;;;;;4.50;4.10;;;;;;;29.33;40.81;97495.87;136807;1277;240447;-80
2023/07/25 11:33:29;;;;;;;6.00;3.50;;;;;;;29.36;40.22;97501.04;137009;1278;22218;-83
2023/07/25 11:36:31;;;;;;;4.40;3.80;;;;;;;29.29;40.16;97498.75;137004;1278;22213;-85
2023/07/25 11:39:34;;;;;;;3.90;3.60;;;;;;;29.09;40.22;97497.02;137011;1277;22358;-83
2023/07/25 11:42:37;;;;;;;6.40;3.80;;;;;;;28.89;40.17;97496.05;136973;1278;22942;-82
2023/07/25 11:45:39;;;;;;;7.30;4.40;;;;;;;28.63;40.82;97489.96;136972;1278;22214;-84
2023/07/25 11:48:42;;;;;;;13.50;4.20;;;;;;;28.53;41.28;97486.58;137017;1277;22268;-84
2023/07/25 11:52:02;;;;;;;4.70;3.60;;;;;;;28.51;41.04;97477.45;137023;1277;22190;-84
2023/07/25 11:55:05;;;;;;;4.10;3.80;;;;;;;28.51;41.09;97473.92;137031;1277;22335;-85
2023/07/25 11:58:08;;;;;;;5.10;4.20;;;;;;;28.59;41.74;97465.08;137011;1278;22398;-83
2023/07/25 12:01:10;;;;;;;4.50;4.10;;;;;;;28.63;41.85;97469.38;137019;1278;22948;-85
2023/07/25 12:04:13;;;;;;;4.70;4.10;;;;;;;28.46;40.74;97468.23;137004;1277;22222;-81
2023/07/25 12:07:15;;;;;;;4.20;3.80;;;;;;;28.05;41.18;97467.49;136903;1277;22337;-83
2023/07/25 12:10:18;;;;;;;7.00;3.80;;;;;;;27.80;41.85;97460.03;136945;1274;23032;-80
2023/07/25 12:13:22;;;;;;;4.80;4.00;;;;;;;27.63;42.54;97460.03;136914;1277;22331;-82
2023/07/25 12:16:25;;;;;;;4.40;4.00;;;;;;;27.37;42.79;97457.30;136923;1278;22201;-82
2023/07/25 12:19:28;;;;;;;4.50;4.00;;;;;;;26.98;43.65;97452.80;136913;1278;22711;-82
2023/07/25 12:22:30;;;;;;;4.30;3.90;;;;;;;26.62;44.75;97445.48;136854;1277;22218;-82
2023/07/25 12:25:33;;;;;;;4.60;4.20;;;;;;;26.31;45.36;97436.42;136886;1278;22230;-83
2023/07/25 12:28:36;;;;;;;4.70;3.90;;;;;;;26.07;46.00;97428.85;136938;1277;22292;-82
2023/07/25 12:31:39;;;;;;;;;;;;;;;25.89;46.93;97426.77;136936;1278;22390;-81
2023/07/25 12:34:42;;;;;;;7.40;4.60;;;;;;;25.66;47.38;97429.81;136684;1277;22238;-81
2023/07/25 12:37:45;;;;;;;4.30;3.70;;;;;;;25.47;47.60;97433.84;136989;1278;22219;-81
2023/07/25 12:40:47;;;;;;;6.40;4.10;;;;;;;25.37;48.37;97428.31;137030;1277;22748;-82
2023/07/25 12:43:50;;;;;;;4.30;3.90;;;;;;;25.32;48.74;97427.10;136983;1277;22342;-81
2023/07/25 12:46:53;;;;;;;4.30;3.90;;;;;;;25.18;49.07;97424.48;136595;1278;22210;-81
2023/07/25 12:49:56;;;;;;;4.70;4.20;;;;;;;25.10;49.72;97419.33;136708;1277;22184;-82
2023/07/25 12:52:58;;;;;;;6.20;3.80;;;;;;;25.04;50.23;97416.73;136676;1277;22212;-82
2023/07/25 12:56:06;;;;;;;10.90;5.70;;;;;;;24.91;50.82;97418.11;136906;1278;22366;-82
2023/07/25 12:59:09;;;;;;;9.90;4.50;;;;;;;24.77;51.59;97420.54;136930;1278;22292;-81
2023/07/25 13:02:12;;;;;;;5.10;4.60;;;;;;;24.60;51.54;97433.95;136774;1270;22259;-82
2023/07/25 13:05:16;;;;;;;5.20;4.60;;;;;;;24.40;50.79;97447.52;136764;1278;22561;-81
2023/07/25 13:08:18;;;;;;;7.10;5.00;;;;;;;24.09;51.05;97461.41;136934;1278;22431;-81
2023/07/25 13:11:23;;;;;;;7.50;4.80;;;;;;;23.79;52.41;97465.62;136936;1278;22263;-83
2023/07/25 13:14:25;;;;;;;11.90;6.30;;;;;;;23.58;55.22;97463.80;137000;1277;22168;-82
2023/07/25 13:17:28;;;;;;;6.10;5.10;;;;;;;23.34;57.69;97460.08;137086;1278;22221;-82
2023/07/25 13:20:31;;;;;;;9.00;5.90;;;;;;;23.15;59.94;97473.65;137061;1278;22351;-82
2023/07/25 13:23:34;;;;;;;8.10;6.00;;;;;;;22.74;64.18;97485.67;137076;1278;22233;-83
2023/07/25 13:26:37;;;;;;;5.90;5.30;;;;;;;22.20;68.19;97489.95;137114;1278;22190;-83
2023/07/25 13:29:42;;;;;;;8.00;5.60;;;;;;;21.71;70.53;97491.40;137049;1278;22240;-83
2023/07/25 13:32:45;;;;;;;7.10;6.00;;;;;;;21.40;73.86;97498.92;137081;1277;22310;-84
2023/07/25 13:35:50;;;;;;;7.50;5.70;;;;;;;21.11;75.83;97491.59;137028;1278;22192;-83
2023/07/25 13:38:53;;;;;;;8.10;5.20;;;;;;;20.82;77.02;97490.20;137009;1278;22262;-83
2023/07/25 13:41:56;;;;;;;7.50;6.40;;;;;;;20.57;78.53;97491.09;136968;1278;22282;-82
2023/07/25 13:44:58;;;;;;;7.30;6.00;;;;;;;20.47;80.70;97485.58;136937;1278;22693;-83
2023/07/25 13:48:01;;;;;;;9.90;6.50;;;;;;;20.34;80.84;97481.92;136969;1277;22223;-83
2023/07/25 13:51:04;;;;;;;6.00;5.30;;;;;;;20.41;81.43;97482.02;136914;1277;22398;-84
2023/07/25 13:54:10;;;;;;;10.50;5.80;;;;;;;20.41;82.74;97482.17;137003;1262;22238;-85
2023/07/25 13:57:12;;;;;;;5.70;5.00;;;;;;;20.30;83.55;97481.23;136991;1278;22353;-81
2023/07/25 14:00:16;;;;;;;8.20;5.60;;;;;;;20.18;84.48;97484.11;136921;1277;22180;-82
2023/07/25 14:03:19;;;;;;;8.80;5.80;;;;;;;20.01;85.44;97474.89;136998;1277;22187;-83
2023/07/25 14:06:21;;;;;;;9.00;6.70;;;;;;;19.91;87.84;97469.52;136987;1272;22201;-82
2023/07/25 14:09:24;;;;;;;10.10;6.50;;;;;;;19.86;87.52;97471.14;136921;1267;22269;-83